Time;durP1;ratioP1;P1;durP2;ratioP2;P2;SDS_P1;SDS_P2;PMS_P1;PMS_P2;Temp;Humidity;BMP_temperature;BMP_pressure;BME280_temperature;BME280_humidity;BME280_pressure;Samples;Min_cycle;Max_cycle;Signal;HPM_P1;HPM_P2
2022/04/05 00:02:08;;;;;;;0.20;0.20;;;19.40;42.60;;;;;;6196593;28;20037;-65
2022/04/05 00:05:09;;;;;;;0.43;0.40;;;19.40;42.60;;;;;;6196346;28;20058;-65
2022/04/05 00:08:10;;;;;;;0.45;0.30;;;19.40;42.60;;;;;;6196418;28;20026;-65
2022/04/05 00:11:10;;;;;;;0.30;0.20;;;19.40;42.60;;;;;;6196418;28;20429;-65
2022/04/05 00:14:11;;;;;;;0.50;0.40;;;19.40;42.60;;;;;;6197146;28;20030;-65
2022/04/05 00:17:11;;;;;;;0.73;0.40;;;19.40;42.60;;;;;;6196262;28;20033;-65
2022/04/05 00:20:12;;;;;;;0.73;0.35;;;19.40;42.60;;;;;;6195394;28;20029;-65
2022/04/05 00:23:12;;;;;;;0.57;0.30;;;19.40;43.30;;;;;;6196207;28;20492;-65
2022/04/05 00:26:13;;;;;;;0.38;0.30;;;19.50;42.70;;;;;;6195472;28;20089;-65
2022/04/05 00:29:13;;;;;;;0.10;0.10;;;19.40;42.60;;;;;;6195693;28;20054;-65
2022/04/05 00:32:14;;;;;;;0.30;0.30;;;19.40;42.60;;;;;;6195391;28;20045;-65
2022/04/05 00:35:15;;;;;;;0.50;0.40;;;19.40;42.60;;;;;;6195638;28;20105;-65
2022/04/05 00:38:15;;;;;;;0.20;0.20;;;19.50;42.70;;;;;;6195533;28;20437;-65
2022/04/05 00:41:16;;;;;;;0.50;0.38;;;19.40;42.60;;;;;;6195409;28;20026;-65
2022/04/05 00:44:17;;;;;;;0.30;0.30;;;19.40;42.60;;;;;;6195400;28;20089;-65
2022/04/05 00:47:22;;;;;;;0.50;0.40;;;19.40;42.60;;;;;;6195425;28;20417;-65
2022/04/05 00:50:23;;;;;;;0.70;0.30;;;19.40;42.70;;;;;;6195188;28;20034;-66
2022/04/05 00:53:25;;;;;;;0.70;0.40;;;19.40;42.60;;;;;;6195459;28;20549;-65
2022/04/05 00:56:27;;;;;;;0.30;0.20;;;19.40;42.70;;;;;;6195476;28;20022;-65
2022/04/05 00:59:30;;;;;;;0.80;0.40;;;19.40;42.70;;;;;;6194087;28;20023;-65
2022/04/05 01:02:36;;;;;;;0.22;0.22;;;19.40;42.70;;;;;;6194046;28;20026;-65
2022/04/05 01:05:38;;;;;;;0.70;0.30;;;19.40;42.70;;;;;;6194901;28;20034;-65
2022/04/05 01:08:39;;;;;;;0.40;0.30;;;19.40;42.70;;;;;;6194217;28;20037;-65
2022/04/05 01:11:40;;;;;;;0.28;0.25;;;19.40;42.70;;;;;;6192704;28;20034;-66
2022/04/05 01:14:41;;;;;;;0.20;0.20;;;19.40;42.70;;;;;;6193990;28;20084;-65
2022/04/05 01:17:42;;;;;;;0.73;0.40;;;19.40;42.70;;;;;;6194301;28;20057;-65
2022/04/05 01:20:43;;;;;;;0.70;0.30;;;19.40;42.70;;;;;;6194019;28;20023;-65
2022/04/05 01:24:10;;;;;;;0.47;0.30;;;19.40;42.70;;;;;;6194550;28;20030;-65
2022/04/05 01:27:17;;;;;;;0.52;0.40;;;19.40;42.80;;;;;;6193814;28;20033;-65
2022/04/05 01:30:17;;;;;;;0.70;0.40;;;19.40;42.80;;;;;;6193135;28;20022;-65
2022/04/05 01:33:19;;;;;;;0.38;0.25;;;19.40;42.80;;;;;;6193997;28;20045;-65
2022/04/05 01:36:21;;;;;;;0.85;0.40;;;19.40;42.80;;;;;;6193701;28;20018;-65
2022/04/05 01:39:26;;;;;;;0.30;0.22;;;19.40;42.80;;;;;;6194009;28;20199;-65
2022/04/05 01:42:26;;;;;;;1.13;0.45;;;19.40;42.80;;;;;;6193766;28;20034;-65
2022/04/05 01:45:27;;;;;;;0.57;0.40;;;19.40;42.90;;;;;;6193825;28;20038;-65
2022/04/05 01:48:27;;;;;;;1.42;0.43;;;19.40;42.80;;;;;;6193811;28;20389;-65
2022/04/05 01:51:28;;;;;;;0.57;0.30;;;19.40;42.90;;;;;;6193465;28;20122;-65
2022/04/05 01:54:28;;;;;;;1.70;0.40;;;19.40;42.90;;;;;;6193745;28;20077;-65
2022/04/05 01:57:29;;;;;;;0.90;0.30;;;19.40;42.80;;;;;;6193417;28;20037;-65
2022/04/05 02:00:29;;;;;;;0.50;0.40;;;19.40;42.80;;;;;;6193848;28;20399;-65
2022/04/05 02:03:30;;;;;;;0.63;0.40;;;19.40;42.90;;;;;;6193208;28;20037;-65
2022/04/05 02:06:31;;;;;;;0.40;0.30;;;19.40;42.90;;;;;;6193547;28;20026;-66
2022/04/05 02:09:32;;;;;;;0.40;0.30;;;19.40;42.80;;;;;;6193574;28;20058;-65
2022/04/05 02:12:32;;;;;;;0.82;0.38;;;19.40;42.90;;;;;;6193299;28;20038;-65
2022/04/05 02:15:33;;;;;;;0.93;0.47;;;19.40;42.90;;;;;;6193482;28;20023;-65
2022/04/05 02:18:35;;;;;;;0.40;0.30;;;19.40;42.90;;;;;;6193458;28;20026;-65
2022/04/05 02:21:36;;;;;;;0.50;0.30;;;19.40;42.90;;;;;;6193634;28;20034;-65
2022/04/05 02:24:37;;;;;;;0.60;0.22;;;19.40;42.90;;;;;;6193046;28;20026;-65
2022/04/05 02:27:41;;;;;;;0.40;0.30;;;19.40;42.90;;;;;;6193003;28;20046;-65
2022/04/05 02:30:41;;;;;;;0.50;0.40;;;19.40;42.90;;;;;;6193028;28;20426;-65
2022/04/05 02:33:42;;;;;;;0.30;0.30;;;19.40;42.90;;;;;;6193086;28;20038;-65
2022/04/05 02:36:43;;;;;;;0.93;0.30;;;19.40;42.90;;;;;;6192020;28;20053;-65
2022/04/05 02:39:43;;;;;;;0.45;0.32;;;19.40;42.90;;;;;;6193025;28;20030;-65
2022/04/05 02:42:44;;;;;;;0.40;0.38;;;19.40;43.00;;;;;;6195754;28;20038;-65
2022/04/05 02:45:44;;;;;;;1.58;0.40;;;19.40;42.90;;;;;;6197942;28;20030;-65
2022/04/05 02:48:46;;;;;;;0.55;0.38;;;19.40;42.90;;;;;;6197344;28;20058;-65
2022/04/05 02:51:47;;;;;;;2.20;0.55;;;19.40;42.90;;;;;;6197274;28;20080;-65
2022/04/05 02:54:47;;;;;;;0.65;0.40;;;19.40;43.00;;;;;;6197128;28;20038;-65
2022/04/05 02:57:48;;;;;;;1.00;0.40;;;19.40;42.90;;;;;;6197084;28;20045;-65
2022/04/05 03:00:48;;;;;;;1.10;0.30;;;19.40;42.90;;;;;;6197235;28;20034;-65
2022/04/05 03:03:49;;;;;;;1.05;0.50;;;19.40;42.90;;;;;;6196973;28;20497;-66
2022/04/05 03:06:50;;;;;;;1.15;0.50;;;19.40;43.00;;;;;;6197255;28;20038;-65
2022/04/05 03:09:51;;;;;;;0.40;0.40;;;19.40;43.00;;;;;;6196740;28;20070;-65
2022/04/05 03:12:51;;;;;;;0.63;0.40;;;19.40;43.00;;;;;;6195444;28;20031;-65
2022/04/05 03:15:52;;;;;;;0.22;0.20;;;19.40;43.00;;;;;;6196702;28;20034;-65
2022/04/05 03:18:53;;;;;;;0.98;0.43;;;19.40;43.00;;;;;;6197044;28;20050;-65
2022/04/05 03:21:53;;;;;;;0.40;0.38;;;19.40;43.00;;;;;;6195753;28;20403;-65
2022/04/05 03:24:54;;;;;;;0.98;0.40;;;19.40;43.00;;;;;;6196182;28;20026;-65
2022/04/05 03:27:54;;;;;;;1.13;0.60;;;19.40;43.00;;;;;;6196085;28;20109;-65
2022/04/05 03:30:55;;;;;;;0.68;0.40;;;19.40;43.10;;;;;;6196153;28;20046;-65
2022/04/05 03:33:56;;;;;;;1.38;0.40;;;19.40;43.10;;;;;;6195890;28;20126;-65
2022/04/05 03:36:57;;;;;;;0.60;0.32;;;19.40;43.10;;;;;;6196358;28;20117;-65
2022/04/05 03:39:57;;;;;;;1.17;0.70;;;19.40;43.10;;;;;;6196350;28;20114;-65
2022/04/05 03:42:58;;;;;;;1.38;0.32;;;19.40;43.00;;;;;;6196228;28;20046;-65
2022/04/05 03:45:59;;;;;;;0.45;0.40;;;19.40;43.10;;;;;;6195895;28;20034;-65
2022/04/05 03:49:00;;;;;;;1.23;0.50;;;19.40;43.10;;;;;;6196806;28;20346;-65
2022/04/05 03:52:00;;;;;;;1.38;0.63;;;19.40;43.10;;;;;;6195545;28;20053;-65
2022/04/05 03:55:01;;;;;;;1.10;0.40;;;19.40;43.10;;;;;;6195764;28;20104;-65
2022/04/05 03:58:02;;;;;;;0.68;0.40;;;19.40;43.10;;;;;;6195701;28;20026;-65
2022/04/05 04:01:03;;;;;;;1.10;0.35;;;19.40;43.10;;;;;;6196152;28;20492;-65
2022/04/05 04:04:03;;;;;;;1.20;0.40;;;19.40;43.10;;;;;;6195171;28;20026;-65
2022/04/05 04:07:04;;;;;;;0.68;0.40;;;19.40;43.10;;;;;;6195898;28;20026;-65
2022/04/05 04:10:05;;;;;;;0.50;0.40;;;19.40;43.00;;;;;;6195909;28;20026;-65
2022/04/05 04:13:05;;;;;;;0.30;0.30;;;19.40;43.10;;;;;;6195206;28;20043;-65
2022/04/05 04:16:06;;;;;;;0.30;0.30;;;19.40;43.10;;;;;;6195374;28;20038;-65
2022/04/05 04:19:07;;;;;;;0.63;0.50;;;19.40;43.10;;;;;;6195544;28;20570;-65
2022/04/05 04:22:07;;;;;;;1.35;0.40;;;19.40;43.10;;;;;;6194984;28;20148;-65
2022/04/05 04:25:08;;;;;;;0.77;0.40;;;19.40;43.00;;;;;;6195041;28;20053;-65
2022/04/05 04:28:10;;;;;;;1.25;0.50;;;19.40;43.10;;;;;;6194719;28;20046;-65
2022/04/05 04:31:10;;;;;;;1.55;0.50;;;19.40;43.10;;;;;;6194896;28;20040;-65
2022/04/05 04:34:11;;;;;;;0.95;0.45;;;19.40;43.10;;;;;;6194877;28;20042;-65
2022/04/05 04:37:12;;;;;;;0.47;0.30;;;19.40;43.00;;;;;;6194420;28;20026;-65
2022/04/05 04:40:13;;;;;;;1.00;0.40;;;19.40;43.00;;;;;;6194970;28;20033;-65
2022/04/05 04:43:15;;;;;;;1.00;0.47;;;19.40;43.00;;;;;;6194807;28;20018;-65
2022/04/05 04:46:16;;;;;;;1.33;0.50;;;19.40;43.00;;;;;;6194459;28;20037;-65
2022/04/05 04:49:17;;;;;;;1.08;0.40;;;19.40;43.00;;;;;;6194519;28;20022;-65
2022/04/05 04:52:17;;;;;;;0.90;0.40;;;19.40;43.00;;;;;;6193961;28;20033;-65
2022/04/05 04:55:18;;;;;;;0.80;0.40;;;19.40;43.00;;;;;;6194372;28;20034;-65
2022/04/05 04:58:19;;;;;;;0.50;0.30;;;19.40;43.00;;;;;;6194427;28;20029;-65
2022/04/05 05:01:19;;;;;;;0.50;0.30;;;19.40;43.00;;;;;;6190004;28;20081;-65
2022/04/05 05:04:20;;;;;;;1.92;0.43;;;19.40;43.00;;;;;;6169549;28;20030;-65
2022/04/05 05:07:20;;;;;;;0.80;0.28;;;19.40;43.00;;;;;;6170445;28;20029;-65
2022/04/05 05:10:23;;;;;;;0.43;0.38;;;19.40;43.00;;;;;;6170330;28;20482;-65
2022/04/05 05:13:24;;;;;;;1.02;0.22;;;19.40;43.00;;;;;;6169564;28;20034;-65
2022/04/05 05:16:24;;;;;;;1.08;0.50;;;19.40;43.00;;;;;;6170551;28;20094;-65
2022/04/05 05:19:25;;;;;;;0.52;0.40;;;19.40;43.00;;;;;;6170148;28;20046;-65
2022/04/05 05:22:25;;;;;;;2.08;0.40;;;19.40;43.10;;;;;;6169990;28;20096;-65
2022/04/05 05:25:26;;;;;;;1.33;0.50;;;19.40;43.00;;;;;;6169372;28;20045;-66
2022/04/05 05:28:26;;;;;;;0.30;0.30;;;19.40;43.10;;;;;;6169576;28;20065;-65
2022/04/05 05:31:27;;;;;;;1.67;0.85;;;19.40;43.10;;;;;;6169615;28;20022;-65
2022/04/05 05:34:27;;;;;;;0.68;0.30;;;19.40;43.10;;;;;;6169756;28;20050;-65
2022/04/05 05:37:28;;;;;;;1.00;0.40;;;19.40;43.00;;;;;;6168963;28;20050;-65
2022/04/05 05:40:29;;;;;;;1.20;0.47;;;19.40;43.00;;;;;;6186738;28;20493;-65
2022/04/05 05:43:29;;;;;;;0.88;0.40;;;19.40;43.30;;;;;;6190812;28;20046;-65
2022/04/05 05:46:30;;;;;;;1.05;0.52;;;19.40;43.10;;;;;;6191660;28;20556;-65
2022/04/05 05:49:30;;;;;;;0.70;0.40;;;19.40;43.10;;;;;;6190753;28;20501;-65
2022/04/05 05:52:31;;;;;;;0.60;0.28;;;19.40;43.40;;;;;;6190895;28;20038;-65
2022/04/05 05:55:32;;;;;;;2.35;0.38;;;19.40;43.10;;;;;;6191208;28;20030;-65
2022/04/05 05:58:33;;;;;;;0.50;0.30;;;19.40;43.10;;;;;;6191360;28;20040;-65
2022/04/05 06:01:33;;;;;;;1.45;0.40;;;19.40;43.20;;;;;;6187571;28;20030;-65
2022/04/05 06:04:34;;;;;;;1.13;0.40;;;19.40;43.30;;;;;;6194474;28;20085;-66
2022/04/05 06:07:34;;;;;;;0.50;0.30;;;19.40;43.30;;;;;;6193786;28;20026;-65
2022/04/05 06:10:35;;;;;;;1.58;0.40;;;19.40;43.30;;;;;;6194376;28;20023;-65
2022/04/05 06:13:36;;;;;;;2.22;0.60;;;19.40;43.30;;;;;;6193489;28;20046;-66
2022/04/05 06:16:37;;;;;;;1.08;0.43;;;19.40;43.40;;;;;;6194641;28;20105;-66
2022/04/05 06:19:38;;;;;;;0.52;0.30;;;19.40;43.40;;;;;;6197417;28;20024;-65
2022/04/05 06:22:49;;;;;;;1.20;0.28;;;19.40;43.40;;;;;;6198672;28;20026;-65
2022/04/05 06:25:50;;;;;;;1.15;0.43;;;19.50;43.50;;;;;;6199019;28;20026;-65
2022/04/05 06:28:54;;;;;;;1.50;0.60;;;19.40;43.40;;;;;;6198223;28;20054;-65
2022/04/05 06:31:54;;;;;;;1.73;0.60;;;19.50;43.50;;;;;;6197674;28;20546;-65
2022/04/05 06:34:55;;;;;;;1.98;0.43;;;19.40;43.50;;;;;;6197740;28;20032;-64
2022/04/05 06:37:55;;;;;;;3.38;0.60;;;19.50;43.60;;;;;;6197164;28;20375;-65
2022/04/05 06:40:59;;;;;;;1.65;0.80;;;19.50;43.60;;;;;;6196933;28;20182;-65
2022/04/05 06:43:59;;;;;;;0.90;0.60;;;19.50;43.60;;;;;;6199730;28;20321;-65
2022/04/05 06:47:00;;;;;;;1.63;0.55;;;19.40;43.50;;;;;;6196754;28;20462;-65
2022/04/05 06:50:00;;;;;;;1.02;0.43;;;19.40;43.50;;;;;;6196965;28;20022;-65
2022/04/05 06:53:02;;;;;;;1.00;0.50;;;19.50;43.60;;;;;;6196453;28;20401;-65
2022/04/05 06:56:03;;;;;;;2.30;0.60;;;19.50;43.60;;;;;;6197794;28;20604;-65
2022/04/05 06:59:04;;;;;;;1.15;0.50;;;19.50;43.60;;;;;;6197483;28;20058;-65
2022/04/05 07:02:04;;;;;;;1.35;0.55;;;19.50;43.60;;;;;;6198226;28;20058;-65
2022/04/05 07:05:06;;;;;;;1.10;0.50;;;19.50;43.60;;;;;;6197738;28;20481;-65
2022/04/05 07:08:10;;;;;;;1.52;0.40;;;19.50;43.60;;;;;;6197527;28;20037;-65
2022/04/05 07:11:10;;;;;;;2.65;0.43;;;19.50;43.60;;;;;;6197015;28;20038;-65
2022/04/05 07:14:11;;;;;;;1.25;0.50;;;19.50;43.60;;;;;;6197821;28;20038;-66
2022/04/05 07:17:11;;;;;;;1.23;0.60;;;19.50;43.70;;;;;;6197278;28;20025;-65
2022/04/05 07:20:13;;;;;;;1.27;0.50;;;19.50;43.70;;;;;;6198041;28;20050;-66
2022/04/05 07:23:15;;;;;;;1.13;0.60;;;19.50;43.80;;;;;;6197071;28;20027;-65
2022/04/05 07:26:16;;;;;;;1.33;0.40;;;19.50;43.70;;;;;;6196784;28;20084;-66
2022/04/05 07:29:16;;;;;;;1.48;0.73;;;19.50;43.70;;;;;;6195535;28;20062;-65
2022/04/05 07:32:17;;;;;;;0.60;0.50;;;19.50;43.70;;;;;;6196675;28;20441;-65
2022/04/05 07:35:18;;;;;;;2.13;0.75;;;19.50;43.70;;;;;;6197472;28;20057;-66
2022/04/05 07:38:18;;;;;;;0.70;0.40;;;19.50;43.70;;;;;;6197316;28;20384;-65
2022/04/05 07:41:19;;;;;;;0.90;0.50;;;19.50;43.70;;;;;;6196817;28;20033;-65
2022/04/05 07:44:20;;;;;;;1.83;0.63;;;19.50;43.70;;;;;;6203989;28;20113;-65
2022/04/05 07:47:21;;;;;;;1.83;0.70;;;19.50;43.70;;;;;;6196473;28;20041;-65
2022/04/05 07:50:21;;;;;;;1.42;0.50;;;19.50;43.70;;;;;;6196735;28;20390;-65
2022/04/05 07:53:22;;;;;;;2.00;0.65;;;19.50;43.70;;;;;;6196262;28;20333;-66
2022/04/05 07:56:23;;;;;;;2.10;0.60;;;19.50;44.50;;;;;;6196822;28;20050;-66
2022/04/05 07:59:23;;;;;;;1.35;0.52;;;19.50;43.80;;;;;;6196426;28;20096;-66
2022/04/05 08:02:24;;;;;;;1.00;0.50;;;19.50;43.80;;;;;;6196529;28;20029;-66
2022/04/05 08:05:25;;;;;;;1.80;0.60;;;19.50;43.70;;;;;;6196191;28;20509;-65
2022/04/05 08:08:25;;;;;;;0.90;0.55;;;19.50;43.80;;;;;;6195959;28;20026;-65
2022/04/05 08:11:26;;;;;;;1.80;0.65;;;19.50;43.80;;;;;;6195764;28;20460;-65
2022/04/05 08:14:29;;;;;;;1.05;0.40;;;19.50;43.80;;;;;;6195827;28;20027;-65
2022/04/05 08:17:30;;;;;;;2.38;0.55;;;19.50;43.80;;;;;;6196006;28;20072;-65
2022/04/05 08:20:32;;;;;;;1.83;0.60;;;19.50;43.80;;;;;;6187370;28;20022;-65
2022/04/05 08:23:32;;;;;;;1.88;0.63;;;19.50;43.80;;;;;;6196156;28;20034;-65
2022/04/05 08:26:33;;;;;;;1.02;0.40;;;19.50;43.80;;;;;;6195793;28;20057;-65
2022/04/05 08:29:39;;;;;;;1.83;0.63;;;19.50;43.80;;;;;;6195506;28;20058;-65
2022/04/05 08:32:42;;;;;;;1.63;0.63;;;19.50;43.80;;;;;;6197214;28;20045;-65
2022/04/05 08:35:43;;;;;;;0.50;0.50;;;19.50;43.80;;;;;;6198375;28;20119;-65
2022/04/05 08:38:44;;;;;;;0.70;0.60;;;19.50;43.80;;;;;;6197209;28;20486;-65
2022/04/05 08:41:46;;;;;;;1.40;0.82;;;19.50;43.80;;;;;;6197744;28;20026;-65
2022/04/05 08:44:49;;;;;;;1.55;0.70;;;19.50;43.90;;;;;;6197481;28;20457;-65
2022/04/05 08:47:58;;;;;;;2.10;0.77;;;19.50;43.90;;;;;;6197761;28;20037;-65
2022/04/05 08:50:58;;;;;;;1.52;0.70;;;19.50;43.90;;;;;;6197947;28;20022;-65
2022/04/05 08:53:59;;;;;;;2.30;1.00;;;19.50;43.80;;;;;;6197741;28;20505;-65
2022/04/05 08:57:00;;;;;;;2.33;0.88;;;19.50;43.80;;;;;;6197523;28;20081;-65
2022/04/05 09:00:03;;;;;;;3.17;1.13;;;19.50;43.80;;;;;;6197788;28;20473;-65
2022/04/05 09:03:08;;;;;;;1.33;0.68;;;19.50;43.80;;;;;;6197325;28;20030;-65
2022/04/05 09:06:31;;;;;;;3.30;1.05;;;19.50;43.80;;;;;;6197071;28;20034;-65
2022/04/05 09:09:32;;;;;;;3.45;1.00;;;19.50;43.80;;;;;;6197344;28;20030;-66
2022/04/05 09:12:50;;;;;;;1.52;0.80;;;19.50;43.80;;;;;;6196827;28;20385;-65
2022/04/05 09:15:53;;;;;;;2.50;0.70;;;19.50;43.70;;;;;;6195828;28;20084;-65
2022/04/05 09:18:53;;;;;;;2.00;0.93;;;19.50;43.80;;;;;;6197136;28;20038;-65
2022/04/05 09:21:58;;;;;;;1.58;0.95;;;19.50;43.80;;;;;;6196882;28;20063;-65
2022/04/05 09:25:07;;;;;;;1.92;0.85;;;19.50;43.70;;;;;;6197148;28;20160;-65
2022/04/05 09:28:09;;;;;;;2.78;1.00;;;19.50;43.70;;;;;;6196661;28;20046;-65
2022/04/05 09:31:21;;;;;;;1.35;0.80;;;19.50;43.70;;;;;;6197048;28;20088;-66
2022/04/05 09:34:21;;;;;;;2.03;0.82;;;19.50;43.70;;;;;;6196718;28;20081;-66
2022/04/05 09:37:28;;;;;;;2.65;1.17;;;19.50;43.60;;;;;;6197108;28;20066;-65
2022/04/05 09:40:32;;;;;;;2.35;0.80;;;19.50;43.60;;;;;;6197052;28;20143;-65
2022/04/05 09:43:33;;;;;;;2.53;0.90;;;19.50;43.70;;;;;;6196477;28;20041;-65
2022/04/05 09:46:35;;;;;;;1.92;0.90;;;19.50;43.60;;;;;;6185196;28;20089;-66
2022/04/05 09:49:41;;;;;;;2.40;0.82;;;19.50;43.60;;;;;;6192197;28;20046;-66
2022/04/05 09:52:41;;;;;;;2.78;0.90;;;19.50;43.60;;;;;;6203414;28;20026;-65
2022/04/05 09:55:42;;;;;;;2.70;1.10;;;19.50;43.70;;;;;;6200246;28;20026;-65
2022/04/05 09:59:04;;;;;;;1.48;0.50;;;19.50;43.70;;;;;;6199779;28;20026;-65
2022/04/05 10:02:14;;;;;;;2.83;0.70;;;19.50;43.60;;;;;;6200237;28;20363;-66
2022/04/05 10:05:18;;;;;;;1.52;1.00;;;19.50;43.60;;;;;;6199722;28;20034;-66
2022/04/05 10:08:20;;;;;;;1.65;0.80;;;19.50;43.70;;;;;;6202647;28;20469;-65
2022/04/05 10:11:21;;;;;;;4.30;0.80;;;19.50;43.60;;;;;;6223869;28;20053;-65
2022/04/05 10:14:21;;;;;;;3.13;0.90;;;19.50;43.70;;;;;;6224089;28;20072;-65
2022/04/05 10:17:26;;;;;;;2.22;0.90;;;19.50;43.70;;;;;;6195717;28;20063;-65
2022/04/05 10:20:27;;;;;;;1.25;0.70;;;19.50;43.70;;;;;;6223913;28;20084;-65
2022/04/05 10:23:29;;;;;;;1.23;0.75;;;19.50;43.60;;;;;;6197282;28;20122;-65
2022/04/05 10:26:37;;;;;;;2.47;0.93;;;19.50;43.70;;;;;;6199397;28;20386;-65
2022/04/05 10:29:38;;;;;;;1.88;0.95;;;19.50;43.70;;;;;;6175544;28;20058;-66
2022/04/05 10:32:54;;;;;;;2.08;0.75;;;19.50;43.80;;;;;;6175396;28;20070;-65
2022/04/05 10:35:58;;;;;;;;;;;19.50;43.80;;;;;;6175587;28;20084;-65
2022/04/05 10:39:25;;;;;;;1.90;0.70;;;19.50;43.90;;;;;;6175027;28;19906;-66
2022/04/05 10:42:37;;;;;;;1.13;0.63;;;19.50;43.80;;;;;;6189033;28;20512;-65
2022/04/05 10:45:43;;;;;;;1.08;0.68;;;19.50;43.90;;;;;;6199437;28;20030;-65
2022/04/05 10:48:55;;;;;;;3.03;1.10;;;19.50;43.80;;;;;;6199744;28;20069;-65
2022/04/05 10:52:09;;;;;;;2.63;0.98;;;19.50;43.80;;;;;;6202169;28;20076;-65
2022/04/05 10:55:11;;;;;;;4.25;1.13;;;19.60;43.50;;;;;;6201147;28;20025;-65
2022/04/05 10:58:12;;;;;;;5.68;1.42;;;19.60;43.70;;;;;;6198719;28;20025;-65
2022/04/05 11:01:16;;;;;;;4.13;1.00;;;19.60;43.60;;;;;;6198516;28;20109;-65
2022/04/05 11:04:29;;;;;;;3.22;1.10;;;19.60;43.60;;;;;;6197938;28;20023;-65
2022/04/05 11:07:52;;;;;;;2.80;1.25;;;19.60;43.50;;;;;;6198400;28;20053;-65
2022/04/05 11:10:54;;;;;;;4.55;1.15;;;19.60;43.60;;;;;;6198701;28;20492;-65
2022/04/05 11:14:34;;;;;;;2.65;1.10;;;19.60;43.60;;;;;;6199417;28;20041;-65
2022/04/05 11:17:37;;;;;;;2.92;1.10;;;19.50;43.60;;;;;;6198145;28;20026;-66
2022/04/05 11:20:42;;;;;;;2.28;1.23;;;19.50;43.60;;;;;;6198412;28;20077;-65
2022/04/05 11:23:46;;;;;;;3.60;0.93;;;19.50;43.60;;;;;;6198016;28;20014;-65
2022/04/05 11:26:47;;;;;;;2.85;1.17;;;19.60;43.60;;;;;;6197553;28;20033;-65
2022/04/05 11:29:47;;;;;;;2.10;1.02;;;19.50;43.60;;;;;;6198106;28;20050;-66
2022/04/05 11:33:08;;;;;;;2.03;1.15;;;19.50;43.60;;;;;;6197943;28;20397;-65
2022/04/05 11:36:13;;;;;;;1.90;1.17;;;19.50;43.60;;;;;;6197608;28;20027;-66
2022/04/05 11:39:14;;;;;;;2.42;0.98;;;19.50;43.60;;;;;;6195925;28;20029;-66
2022/04/05 11:42:15;;;;;;;2.58;1.00;;;19.50;43.60;;;;;;6197361;28;20031;-66
2022/04/05 11:45:16;;;;;;;1.75;1.10;;;19.50;43.60;;;;;;6191409;28;20383;-66
2022/04/05 11:48:21;;;;;;;2.70;0.80;;;19.50;43.60;;;;;;6221920;28;20084;-65
2022/04/05 11:51:27;;;;;;;3.20;1.20;;;19.50;43.60;;;;;;6222263;28;20018;-65
2022/04/05 11:54:28;;;;;;;2.33;1.00;;;19.50;43.70;;;;;;6220388;28;20158;-66
2022/04/05 11:57:29;;;;;;;2.65;1.15;;;19.50;43.70;;;;;;6192201;28;20057;-65
2022/04/05 12:00:30;;;;;;;3.53;1.00;;;19.50;43.70;;;;;;6189806;28;20026;-65
2022/04/05 12:03:55;;;;;;;1.83;0.98;;;19.50;43.90;;;;;;6210327;28;20026;-66
2022/04/05 12:06:58;;;;;;;5.22;1.55;;;19.50;43.60;;;;;;6213737;28;20401;-65
2022/04/05 12:09:58;;;;;;;6.00;1.30;;;19.40;43.10;;;;;;6196981;28;20466;-65
2022/04/05 12:12:59;;;;;;;4.18;1.30;;;19.50;42.30;;;;;;6196761;28;20058;-66
2022/04/05 12:16:01;;;;;;;5.95;1.48;;;19.40;41.80;;;;;;6196738;28;20060;-65
2022/04/05 12:19:03;;;;;;;6.20;1.60;;;19.40;41.30;;;;;;6196841;28;20032;-65
2022/04/05 12:22:10;;;;;;;3.30;1.15;;;19.40;41.20;;;;;;6196290;28;20036;-66
2022/04/05 12:25:10;;;;;;;5.00;1.30;;;19.40;41.20;;;;;;6195986;28;20035;-66
2022/04/05 12:28:11;;;;;;;6.55;1.50;;;19.40;40.70;;;;;;6195694;28;20085;-65
2022/04/05 12:31:16;;;;;;;3.25;1.10;;;19.40;40.20;;;;;;6192658;28;20114;-65
2022/04/05 12:34:18;;;;;;;2.13;0.85;;;19.40;40.70;;;;;;6196063;28;20030;-65
2022/04/05 12:37:20;;;;;;;4.13;1.20;;;19.50;41.20;;;;;;6196127;28;20113;-65
2022/04/05 12:40:24;;;;;;;7.63;1.10;;;19.50;41.40;;;;;;6196120;28;20489;-66
2022/04/05 12:43:25;;;;;;;3.03;1.15;;;19.40;41.50;;;;;;6195713;28;20026;-65
2022/04/05 12:46:36;;;;;;;3.42;0.80;;;19.50;41.70;;;;;;6196138;28;20370;-65
2022/04/05 12:49:38;;;;;;;2.97;1.23;;;19.50;41.80;;;;;;6195791;28;20374;-65
2022/04/05 12:52:39;;;;;;;6.50;1.60;;;19.50;41.90;;;;;;6205243;28;20480;-65
2022/04/05 12:55:39;;;;;;;5.93;1.02;;;19.50;42.00;;;;;;6197206;28;20061;-65
2022/04/05 12:58:45;;;;;;;5.13;1.00;;;19.50;42.60;;;;;;6196331;28;20203;-65
2022/04/05 13:01:54;;;;;;;4.53;0.77;;;19.50;42.20;;;;;;6195427;28;20058;-66
2022/04/05 13:08:38;;;;;;;3.35;1.13;;;19.50;42.40;;;;;;6195598;28;20536;-65
2022/04/05 13:11:39;;;;;;;4.07;1.15;;;19.50;42.50;;;;;;6195783;28;20030;-65
2022/04/05 13:14:40;;;;;;;4.13;1.15;;;19.50;42.60;;;;;;6194862;28;20556;-65
2022/04/05 13:17:40;;;;;;;3.75;1.10;;;19.50;42.70;;;;;;6195249;28;20369;-65
2022/04/05 13:20:42;;;;;;;3.53;0.85;;;19.50;42.40;;;;;;6193665;28;20030;-65
2022/04/05 13:23:58;;;;;;;9.52;1.45;;;19.50;42.40;;;;;;6194647;28;20073;-66
2022/04/05 13:26:58;;;;;;;2.15;0.85;;;19.50;42.60;;;;;;6194157;28;20041;-65
2022/04/05 13:30:08;;;;;;;5.53;1.00;;;19.50;42.60;;;;;;6216011;28;20138;-65
2022/04/05 13:33:09;;;;;;;2.92;0.90;;;19.50;42.70;;;;;;6210515;28;20027;-66
2022/04/05 13:36:10;;;;;;;2.63;0.80;;;19.50;42.80;;;;;;6194893;28;20018;-65
2022/04/05 13:39:11;;;;;;;4.57;0.90;;;19.50;42.80;;;;;;6194591;28;20018;-65
2022/04/05 13:42:13;;;;;;;4.78;1.00;;;19.50;42.80;;;;;;6194233;28;20193;-65
2022/04/05 13:45:14;;;;;;;2.92;1.05;;;19.50;43.10;;;;;;6194910;28;20029;-66
2022/04/05 13:48:15;;;;;;;3.33;0.90;;;19.50;42.90;;;;;;6194534;28;20389;-65
2022/04/05 13:51:16;;;;;;;4.13;0.77;;;19.50;42.50;;;;;;6194428;28;20097;-65
2022/04/05 13:54:16;;;;;;;2.72;0.70;;;19.50;42.60;;;;;;6216781;28;20030;-65
2022/04/05 13:57:20;;;;;;;1.92;0.75;;;19.50;42.60;;;;;;6213335;28;20029;-65
2022/04/05 14:00:20;;;;;;;1.50;0.70;;;19.50;42.70;;;;;;6194135;28;20077;-65
2022/04/05 14:03:21;;;;;;;1.50;0.75;;;19.50;42.70;;;;;;6194439;28;20069;-65
2022/04/05 14:06:22;;;;;;;2.42;0.70;;;19.50;42.70;;;;;;6193182;28;20027;-65
2022/04/05 14:09:22;;;;;;;4.13;0.93;;;19.50;42.80;;;;;;6194301;28;20036;-65
2022/04/05 14:12:23;;;;;;;3.60;0.70;;;19.50;42.80;;;;;;6193926;28;20038;-65
2022/04/05 14:15:23;;;;;;;1.65;0.70;;;19.50;42.80;;;;;;6194603;28;20493;-65
2022/04/05 14:18:24;;;;;;;1.40;0.63;;;19.50;42.90;;;;;;6194601;28;20105;-65
2022/04/05 14:21:25;;;;;;;2.38;0.80;;;19.50;42.90;;;;;;6210449;28;20026;-65
2022/04/05 14:24:25;;;;;;;4.00;0.80;;;19.50;42.90;;;;;;6219142;28;20057;-65
2022/04/05 14:27:26;;;;;;;3.38;1.00;;;19.50;43.00;;;;;;6194350;28;20034;-65
2022/04/05 14:30:26;;;;;;;2.40;1.00;;;19.50;43.00;;;;;;6193859;28;20030;-65
2022/04/05 14:33:27;;;;;;;1.65;0.70;;;19.50;43.10;;;;;;6194081;28;20038;-65
2022/04/05 14:36:28;;;;;;;2.78;0.70;;;19.50;43.10;;;;;;6194134;28;20049;-65
2022/04/05 14:39:29;;;;;;;3.20;0.70;;;19.50;43.10;;;;;;6197783;28;20054;-65
2022/04/05 14:42:29;;;;;;;1.85;0.68;;;19.50;43.10;;;;;;6197976;28;20026;-65
2022/04/05 14:45:30;;;;;;;2.53;0.93;;;19.50;43.10;;;;;;6199021;28;20023;-65
2022/04/05 14:48:32;;;;;;;1.42;0.60;;;19.50;43.10;;;;;;6198096;28;20095;-65
2022/04/05 14:51:35;;;;;;;3.50;0.68;;;19.50;43.20;;;;;;6197883;28;20532;-65
2022/04/05 14:54:36;;;;;;;1.63;0.60;;;19.50;43.10;;;;;;6222878;28;20038;-65
2022/04/05 14:57:36;;;;;;;0.60;0.52;;;19.50;43.30;;;;;;6221973;28;20106;-66
2022/04/05 15:00:37;;;;;;;2.30;0.80;;;19.50;43.20;;;;;;6197843;28;20030;-65
2022/04/05 15:03:38;;;;;;;2.05;0.70;;;19.50;43.20;;;;;;6198158;28;20022;-65
2022/04/05 15:06:38;;;;;;;2.08;0.70;;;19.50;43.20;;;;;;6197983;28;20449;-65
2022/04/05 15:09:39;;;;;;;4.93;0.80;;;19.50;43.20;;;;;;6197783;28;20031;-65
2022/04/05 15:12:42;;;;;;;1.73;0.60;;;19.50;43.30;;;;;;6196635;28;20025;-65
2022/04/05 15:15:42;;;;;;;1.70;0.80;;;19.50;43.30;;;;;;6197912;28;20139;-65
2022/04/05 15:18:43;;;;;;;1.45;0.63;;;19.50;43.30;;;;;;6197376;28;20034;-65
2022/04/05 15:21:43;;;;;;;1.77;0.50;;;19.50;43.30;;;;;;6197322;28;20390;-66
2022/04/05 15:24:44;;;;;;;1.38;0.63;;;19.50;43.40;;;;;;6196654;28;20113;-65
2022/04/05 15:27:45;;;;;;;1.70;0.80;;;19.50;43.40;;;;;;6197435;28;20044;-65
2022/04/05 15:30:46;;;;;;;1.75;0.70;;;19.50;43.40;;;;;;6197027;28;20054;-65
2022/04/05 15:33:46;;;;;;;1.40;0.52;;;19.50;43.40;;;;;;6197693;28;20555;-65
2022/04/05 15:36:47;;;;;;;0.82;0.50;;;19.50;43.40;;;;;;6196894;28;20105;-65
2022/04/05 15:39:48;;;;;;;1.05;0.60;;;19.50;43.50;;;;;;6197051;28;20026;-65
2022/04/05 15:42:49;;;;;;;0.70;0.43;;;19.50;43.50;;;;;;6196312;28;20057;-66
2022/04/05 15:45:49;;;;;;;1.67;0.73;;;19.50;43.50;;;;;;6197224;28;20022;-65
2022/04/05 15:48:50;;;;;;;1.63;0.60;;;19.50;43.60;;;;;;6196699;28;20168;-65
2022/04/05 15:51:51;;;;;;;1.95;0.73;;;19.50;43.60;;;;;;6199371;28;21076;-66
2022/04/05 15:54:52;;;;;;;1.00;0.60;;;19.50;43.60;;;;;;6221229;28;20437;-65